Time;durP1;ratioP1;P1;durP2;ratioP2;P2;SDS_P1;SDS_P2;PMS_P1;PMS_P2;Temp;Humidity;BMP_temperature;BMP_pressure;BME280_temperature;BME280_humidity;BME280_pressure;Samples;Min_cycle;Max_cycle;Signal;HPM_P1;HPM_P2
2022/03/27 00:00:27;;;;;;;6.70;3.60;;;1.40;1.40;;;2.38;95.07;96468.86;647649;216;42203;-78
2022/03/27 00:03:15;;;;;;;3.67;3.28;;;1.40;1.40;;;2.31;95.71;96465.27;647421;216;31600;-78
2022/03/27 00:06:03;;;;;;;6.32;4.35;;;1.30;1.40;;;2.24;96.67;96462.13;646232;216;31655;-77
2022/03/27 00:08:54;;;;;;;9.80;4.40;;;1.40;1.40;;;2.15;98.27;96464.63;619841;226;32324;-78
2022/03/27 00:11:36;;;;;;;7.30;4.03;;;1.40;1.40;;;2.12;97.11;96464.34;647419;212;42280;-76
2022/03/27 00:14:19;;;;;;;4.93;4.33;;;1.40;1.40;;;2.17;98.38;96460.25;620243;226;32458;-78
2022/03/27 00:17:04;;;;;;;5.60;5.20;;;1.30;1.40;;;2.12;97.28;96464.18;648120;216;31606;-78
2022/03/27 00:19:46;;;;;;;4.10;3.58;;;1.30;1.40;;;2.14;98.65;96458.73;646988;216;42202;-78
2022/03/27 00:22:31;;;;;;;6.78;4.65;;;1.30;1.40;;;2.07;99.88;96459.70;620538;226;42974;-78
2022/03/27 00:25:13;;;;;;;5.25;4.12;;;1.30;1.40;;;2.06;98.68;96464.08;619998;222;42541;-78
2022/03/27 00:27:57;;;;;;;8.43;3.78;;;1.20;1.40;;;2.00;100.00;96459.75;646834;216;31540;-77
2022/03/27 00:30:46;;;;;;;11.93;5.45;;;1.20;1.40;;;1.87;100.00;96460.25;647698;216;31555;-77
2022/03/27 00:35:51;;;;;;;6.07;4.20;;;1.10;1.40;;;1.86;100.00;96455.42;646869;216;31652;-77
2022/03/27 00:38:34;;;;;;;7.90;3.67;;;1.10;1.40;;;1.78;100.00;96458.10;646597;216;31602;-78
2022/03/27 00:41:16;;;;;;;7.53;3.97;;;0.90;1.40;;;1.73;100.00;96452.66;620269;222;32033;-78
2022/03/27 00:43:59;;;;;;;5.87;4.45;;;0.80;1.40;;;1.69;100.00;96456.98;647087;216;31721;-76
2022/03/27 00:46:43;;;;;;;7.85;4.60;;;0.70;1.40;;;1.75;100.00;96465.81;647284;212;31589;-78
2022/03/27 00:49:28;;;;;;;6.72;5.60;;;0.80;1.40;;;1.93;97.06;96462.89;648086;216;32084;-79
2022/03/27 00:52:11;;;;;;;8.15;4.68;;;1.00;1.40;;;1.86;100.00;96460.46;648342;216;31536;-76
2022/03/27 00:54:53;;;;;;;4.75;3.60;;;1.00;1.40;;;1.79;98.58;96457.22;647485;212;31831;-78
2022/03/27 00:57:37;;;;;;;5.60;4.40;;;0.90;1.40;;;1.76;99.15;96459.92;646577;212;32249;-77
2022/03/27 01:00:42;;;;;;;5.53;4.65;;;0.90;1.40;;;1.72;99.88;96465.69;643773;216;31574;-78
2022/03/27 01:03:31;;;;;;;7.70;4.43;;;0.80;1.40;;;1.63;100.00;96464.33;646232;212;31581;-76
2022/03/27 01:06:18;;;;;;;7.03;3.65;;;0.70;1.40;;;1.49;100.00;96460.12;646740;213;31603;-78
2022/03/27 01:11:47;;;;;;;8.25;3.40;;;0.40;1.40;;;1.17;100.00;96463.33;646820;216;31567;-78
2022/03/27 01:14:32;;;;;;;7.10;4.85;;;0.20;1.40;;;1.25;99.89;96466.25;647389;212;42159;-78
2022/03/27 01:17:16;;;;;;;7.85;3.87;;;0.10;1.40;;;1.01;100.00;96464.92;619837;226;32032;-79
2022/03/27 01:19:59;;;;;;;6.65;4.43;;;0.00;1.40;;;1.00;100.00;96457.05;647302;216;31598;-78
2022/03/27 01:22:41;;;;;;;5.37;3.80;;;0.00;1.40;;;0.88;100.00;96458.23;647787;216;31552;-78
2022/03/27 01:25:26;;;;;;;8.48;4.90;;;-0.10;1.40;;;0.77;100.00;96452.08;619323;222;31934;-77
2022/03/27 01:28:08;;;;;;;8.60;4.15;;;-0.20;1.40;;;0.79;100.00;96447.50;647443;216;42208;-78
2022/03/27 01:30:51;;;;;;;4.78;3.35;;;-0.20;1.40;;;0.63;100.00;96445.23;620083;226;32236;-79
2022/03/27 01:35:57;;;;;;;6.82;4.60;;;-0.50;1.40;;;0.48;100.00;96445.75;646718;213;31908;-78
2022/03/27 01:38:37;;;;;;;4.30;2.70;;;-0.40;1.40;;;0.40;100.00;96444.73;648676;212;33291;-79
2022/03/27 01:41:19;;;;;;;6.35;3.70;;;-0.50;1.40;;;0.34;100.00;96439.13;647377;216;31630;-78
2022/03/27 01:44:01;;;;;;;5.22;3.47;;;-0.50;1.40;;;0.22;100.00;96436.22;647343;216;31582;-78
2022/03/27 01:46:44;;;;;;;6.90;3.78;;;-0.60;1.40;;;0.32;100.00;96437.29;620401;226;31924;-78
2022/03/27 01:49:29;;;;;;;8.30;4.37;;;-0.40;1.40;;;0.34;100.00;96435.45;648293;216;32153;-78
2022/03/27 01:52:10;;;;;;;6.07;3.20;;;-0.40;1.40;;;0.40;100.00;96432.67;647446;212;31546;-78
2022/03/27 01:54:52;;;;;;;7.93;4.25;;;-0.20;1.40;;;0.51;100.00;96433.37;620233;222;32486;-79
2022/03/27 01:57:33;;;;;;;8.00;4.05;;;-0.10;1.40;;;0.46;100.00;96432.98;646954;212;32187;-78
2022/03/27 02:00:15;;;;;;;4.68;3.65;;;-0.20;1.40;;;0.49;100.00;96436.86;621111;226;32975;-77
2022/03/27 02:02:57;;;;;;;4.43;4.03;;;-0.10;1.40;;;0.50;100.00;96431.52;620653;226;31865;-78
2022/03/27 02:05:39;;;;;;;8.05;4.37;;;-0.10;1.40;;;0.48;100.00;96435.16;620453;222;31948;-78
2022/03/27 02:09:54;;;;;;;5.93;4.22;;;-0.20;1.40;;;0.45;100.00;96434.99;620007;222;32061;-78
2022/03/27 02:12:37;;;;;;;7.78;4.03;;;-0.10;1.40;;;0.42;100.00;96428.75;620327;222;31892;-77
2022/03/27 02:15:19;;;;;;;4.25;3.40;;;-0.20;1.40;;;0.40;100.00;96429.25;647122;212;31551;-78
2022/03/27 02:18:06;;;;;;;4.82;3.40;;;-0.20;1.40;;;0.38;100.00;96428.78;647370;216;31546;-78
2022/03/27 02:20:50;;;;;;;13.00;4.15;;;-0.20;1.40;;;0.45;100.00;96423.73;647762;216;31880;-78
2022/03/27 02:26:09;;;;;;;5.57;3.67;;;-0.10;1.40;;;0.51;100.00;96427.48;646477;213;31571;-77
2022/03/27 02:28:51;;;;;;;4.90;3.70;;;-0.30;1.40;;;0.37;100.00;96428.86;619726;222;31908;-77
2022/03/27 02:31:39;;;;;;;6.75;3.80;;;-0.30;1.40;;;0.40;100.00;96431.78;642949;217;31607;-78
2022/03/27 02:35:51;;;;;;;4.00;3.55;;;-0.10;1.40;;;0.46;100.00;96430.06;647776;216;31594;-78
2022/03/27 02:38:33;;;;;;;2.90;2.42;;;-0.10;1.40;;;0.48;100.00;96427.93;647348;216;31533;-78
2022/03/27 02:41:15;;;;;;;6.97;4.32;;;0.00;1.40;;;0.59;100.00;96428.11;646924;212;31540;-78
2022/03/27 02:43:58;;;;;;;8.02;3.17;;;0.00;1.40;;;0.65;100.00;96427.92;619523;222;32091;-78
2022/03/27 02:46:39;;;;;;;7.25;3.37;;;0.00;1.40;;;0.67;100.00;96430.98;620030;222;31944;-78
2022/03/27 02:49:21;;;;;;;6.62;3.65;;;0.00;1.40;;;0.64;100.00;96429.02;648147;216;31593;-78
2022/03/27 02:52:05;;;;;;;5.40;2.83;;;-0.10;1.40;;;0.60;100.00;96428.84;621718;222;31900;-77
2022/03/27 02:54:47;;;;;;;5.72;3.15;;;-0.10;1.40;;;0.54;100.00;96426.59;647307;212;31578;-78
2022/03/27 02:57:29;;;;;;;3.42;2.35;;;-0.10;1.40;;;0.54;100.00;96428.80;642336;215;31572;-79
2022/03/27 03:00:25;;;;;;;6.40;3.30;;;-0.20;1.40;;;0.64;100.00;96430.81;619732;226;33208;-77
2022/03/27 03:03:09;;;;;;;5.43;3.20;;;-0.10;1.40;;;0.50;100.00;96432.64;647253;212;31606;-78
2022/03/27 03:05:51;;;;;;;4.15;2.42;;;-0.20;1.40;;;0.57;100.00;96435.36;647122;216;32237;-78
2022/03/27 03:08:38;;;;;;;4.57;3.15;;;-0.20;1.40;;;0.49;100.00;96438.58;630998;218;31722;-77
2022/03/27 03:11:20;;;;;;;4.82;3.83;;;-0.40;1.40;;;0.33;100.00;96436.45;648129;212;31591;-77
2022/03/27 03:14:01;;;;;;;3.97;3.67;;;-0.60;1.40;;;0.18;100.00;96436.31;647129;212;31583;-78
2022/03/27 03:16:43;;;;;;;5.18;2.97;;;-0.70;1.40;;;0.06;100.00;96437.12;620079;226;32231;-78
2022/03/27 03:19:24;;;;;;;3.83;2.70;;;-0.80;1.40;;;0.04;100.00;96433.64;646371;216;31594;-77
2022/03/27 03:22:07;;;;;;;3.47;1.73;;;-0.80;1.40;;;-0.03;100.00;96436.13;621415;222;31938;-78
2022/03/27 03:24:52;;;;;;;4.75;3.58;;;-0.90;1.40;;;-0.10;100.00;96432.16;648205;212;31941;-78
2022/03/27 03:27:35;;;;;;;5.55;2.78;;;-1.00;1.40;;;-0.17;100.00;96428.69;647499;213;31571;-78
2022/03/27 03:30:17;;;;;;;4.75;2.80;;;-1.00;1.40;;;-0.16;100.00;96435.20;647773;212;31582;-78
2022/03/27 03:33:00;;;;;;;4.97;3.37;;;-1.00;1.40;;;-0.18;100.00;96429.91;647423;212;31603;-78
2022/03/27 03:35:56;;;;;;;4.25;3.83;;;-1.00;1.40;;;-0.14;100.00;96437.36;643252;215;32010;-78
2022/03/27 03:38:39;;;;;;;6.75;2.90;;;-0.90;1.40;;;-0.09;100.00;96432.53;648960;212;31555;-78
2022/03/27 03:41:28;;;;;;;5.83;3.43;;;-0.90;1.40;;;-0.06;100.00;96435.52;647179;212;31574;-78
2022/03/27 03:44:12;;;;;;;3.20;2.90;;;-0.90;1.40;;;-0.12;100.00;96431.66;646119;216;31578;-76
2022/03/27 03:46:59;;;;;;;7.30;2.70;;;-0.80;1.40;;;-0.18;100.00;96434.38;647721;212;31778;-78
2022/03/27 03:49:46;;;;;;;7.22;2.65;;;-0.90;1.40;;;-0.18;100.00;96429.55;646638;212;32402;-78
2022/03/27 03:52:34;;;;;;;8.57;4.60;;;-0.90;1.40;;;-0.12;100.00;96427.98;646925;216;42146;-79
2022/03/27 03:55:16;;;;;;;10.60;4.20;;;-0.90;1.40;;;-0.03;100.00;96431.88;648747;212;32105;-79
2022/03/27 03:57:58;;;;;;;4.47;4.10;;;-0.70;1.40;;;-0.14;100.00;96427.28;647823;216;31565;-78
2022/03/27 04:00:41;;;;;;;4.60;4.10;;;-0.80;1.40;;;-0.17;100.00;96433.52;647196;212;31610;-78
2022/03/27 04:03:23;;;;;;;5.78;4.10;;;-0.90;1.40;;;-0.23;100.00;96432.91;648030;216;31621;-78
2022/03/27 04:06:23;;;;;;;;;;;;;;;;;;;;;
2022/03/27 04:09:08;;;;;;;4.62;3.53;;;-0.90;1.40;;;-0.14;100.00;96430.04;649021;216;31704;-78
2022/03/27 04:11:50;;;;;;;4.50;2.20;;;-0.80;1.40;;;-0.07;100.00;96432.10;620726;226;31945;-78
2022/03/27 04:14:36;;;;;;;3.35;2.85;;;-0.90;1.40;;;-0.20;100.00;96434.72;646925;216;31504;-78
2022/03/27 04:17:19;;;;;;;3.30;2.70;;;-0.90;1.40;;;-0.36;100.00;96433.09;647665;216;31577;-78
2022/03/27 04:20:06;;;;;;;5.05;4.22;;;-0.90;1.40;;;-0.35;100.00;96434.72;620366;222;31904;-78
2022/03/27 04:22:51;;;;;;;6.37;3.55;;;-0.90;1.40;;;-0.30;100.00;96435.70;619821;222;32121;-78
2022/03/27 04:25:39;;;;;;;5.47;2.40;;;-0.90;1.40;;;-0.19;100.00;96437.75;646312;216;31546;-75
2022/03/27 04:28:23;;;;;;;4.43;2.37;;;-0.90;1.40;;;-0.27;100.00;96442.08;619955;226;31886;-78
2022/03/27 04:31:11;;;;;;;9.18;4.45;;;-0.90;1.40;;;-0.35;100.00;96434.68;646434;212;31645;-75
2022/03/27 04:35:54;;;;;;;2.75;2.55;;;-1.00;1.40;;;-0.32;100.00;96433.29;647742;216;31554;-78
2022/03/27 04:38:40;;;;;;;4.20;2.60;;;-1.10;1.40;;;-0.36;100.00;96431.27;647496;216;31664;-78
2022/03/27 04:41:27;;;;;;;2.40;1.50;;;-1.10;1.40;;;-0.47;100.00;96434.27;647316;216;31581;-78
2022/03/27 04:44:16;;;;;;;8.05;2.40;;;-1.10;1.40;;;-0.43;100.00;96432.17;642443;217;31547;-78
2022/03/27 04:47:14;;;;;;;3.03;2.72;;;-1.00;1.40;;;-0.38;100.00;96430.20;619968;222;42491;-79
2022/03/27 04:49:59;;;;;;;3.55;2.17;;;-1.10;1.40;;;-0.41;100.00;96430.79;646834;216;31567;-76
2022/03/27 04:52:42;;;;;;;4.20;2.40;;;-1.20;1.40;;;-0.42;100.00;96432.39;646885;212;31530;-77
2022/03/27 04:55:24;;;;;;;6.90;2.30;;;-1.20;1.40;;;-0.47;100.00;96426.41;647865;216;31725;-76
2022/03/27 04:58:08;;;;;;;4.12;2.80;;;-1.10;1.40;;;-0.49;100.00;96420.77;645745;216;31552;-77
2022/03/27 05:00:49;;;;;;;6.10;1.80;;;-1.00;1.40;;;-0.40;100.00;96425.89;645751;216;31562;-76
2022/03/27 05:03:31;;;;;;;3.28;2.83;;;-1.00;1.40;;;-0.43;100.00;96424.92;646636;216;31543;-78
2022/03/27 05:06:13;;;;;;;3.72;3.15;;;-1.10;1.40;;;-0.35;100.00;96424.13;646431;216;31634;-78
2022/03/27 05:08:58;;;;;;;6.62;2.40;;;-1.10;1.40;;;-0.42;100.00;96425.05;636197;212;31697;-77
2022/03/27 05:11:42;;;;;;;4.80;2.45;;;-1.10;1.40;;;-0.46;100.00;96424.77;619909;215;31914;-79
2022/03/27 05:14:30;;;;;;;4.25;3.30;;;-1.10;1.40;;;-0.38;100.00;96427.61;631763;221;31778;-76
2022/03/27 05:17:11;;;;;;;4.80;3.33;;;-1.00;1.40;;;-0.32;100.00;96428.21;618039;226;31998;-78
2022/03/27 05:19:53;;;;;;;4.78;2.35;;;-1.00;1.40;;;-0.30;100.00;96426.79;646275;212;32142;-76
2022/03/27 05:22:36;;;;;;;3.67;2.45;;;-0.90;1.40;;;-0.21;100.00;96435.33;647664;212;32000;-77
2022/03/27 05:25:17;;;;;;;2.40;1.83;;;-0.90;1.40;;;-0.19;100.00;96430.01;646858;212;31608;-76
2022/03/27 05:35:53;;;;;;;2.80;1.60;;;-0.70;1.40;;;0.18;100.00;96438.98;647045;212;31484;-76
2022/03/27 05:38:42;;;;;;;3.80;2.42;;;-0.70;1.40;;;0.21;100.00;96438.02;645443;212;31640;-76
2022/03/27 05:41:24;;;;;;;3.08;2.47;;;-0.70;1.40;;;0.18;100.00;96438.75;646847;212;31579;-76
2022/03/27 05:44:05;;;;;;;3.17;1.75;;;-0.60;1.40;;;0.32;100.00;96444.37;647401;216;31557;-76
2022/03/27 05:47:00;;;;;;;5.80;2.80;;;-0.50;1.40;;;0.42;100.00;96441.71;628234;222;31803;-79
2022/03/27 05:49:48;;;;;;;4.90;3.55;;;-0.30;1.40;;;0.51;100.00;96443.66;619291;222;31998;-75
2022/03/27 05:53:02;;;;;;;6.55;4.72;;;-0.20;1.40;;;0.64;100.00;96440.42;647026;212;31631;-75
2022/03/27 05:55:44;;;;;;;8.45;3.45;;;-0.10;1.40;;;0.72;100.00;96449.81;646674;212;31621;-76
2022/03/27 05:58:26;;;;;;;4.40;2.70;;;-0.10;1.40;;;0.90;100.00;96448.34;647595;216;31609;-76
2022/03/27 06:03:42;;;;;;;6.93;4.18;;;0.10;1.40;;;1.01;100.00;96450.38;645431;212;31583;-76
2022/03/27 06:06:23;;;;;;;9.55;3.60;;;0.00;1.40;;;1.13;100.00;96450.91;647696;216;31592;-75
2022/03/27 06:09:05;;;;;;;5.18;2.92;;;0.10;1.40;;;1.21;100.00;96444.28;647459;212;31556;-77
2022/03/27 06:11:50;;;;;;;3.22;2.62;;;0.20;1.40;;;1.29;100.00;96445.91;646128;212;31604;-76
2022/03/27 06:14:31;;;;;;;5.20;4.03;;;0.20;1.40;;;1.39;100.00;96447.02;647249;216;31598;-76
2022/03/27 06:17:13;;;;;;;4.10;3.67;;;0.30;1.40;;;1.49;100.00;96445.59;647019;216;32170;-76
2022/03/27 06:19:55;;;;;;;6.10;3.53;;;0.50;1.40;;;1.57;100.00;96440.20;618231;226;32083;-76
2022/03/27 06:22:37;;;;;;;3.70;3.00;;;0.60;1.40;;;1.70;100.00;96440.56;619896;226;42592;-78
2022/03/27 06:25:45;;;;;;;5.57;3.92;;;0.70;1.40;;;1.88;100.00;96434.34;620637;215;31965;-78
2022/03/27 06:28:20;;;;;;;4.07;3.77;;;0.90;1.40;;;2.05;100.00;96435.17;634705;220;23572;-79
2022/03/27 06:31:02;;;;;;;2.62;2.40;;;1.00;1.40;;;2.24;100.00;96438.44;659174;209;31494;-79
2022/03/27 06:35:51;;;;;;;4.05;3.65;;;1.50;1.40;;;2.56;100.00;96439.77;651987;212;31663;-79
2022/03/27 06:38:35;;;;;;;5.43;2.65;;;1.70;1.40;;;2.71;100.00;96441.77;621103;222;32045;-78
2022/03/27 06:41:25;;;;;;;4.57;3.45;;;1.90;1.40;;;2.95;100.00;96440.91;646061;216;31688;-79
2022/03/27 06:44:08;;;;;;;6.57;3.92;;;2.10;1.40;;;3.27;100.00;96439.67;621021;226;32116;-79
2022/03/27 06:46:52;;;;;;;8.15;4.50;;;2.30;1.40;;;3.32;100.00;96445.69;646337;216;31602;-77
2022/03/27 06:51:30;;;;;;;6.62;4.47;;;2.50;1.40;;;3.74;100.00;96451.72;648757;216;32054;-78
2022/03/27 06:54:21;;;;;;;7.90;4.53;;;2.70;1.40;;;4.05;100.00;96450.13;620926;226;32183;-78
2022/03/27 06:57:05;;;;;;;7.43;4.20;;;3.00;1.40;;;4.26;100.00;96455.16;647754;216;42315;-78
2022/03/27 07:05:36;;;;;;;9.50;5.00;;;3.60;1.40;;;4.89;97.20;96447.58;621210;225;42685;-78
2022/03/27 07:08:47;;;;;;;6.07;5.47;;;3.90;1.40;;;5.20;96.05;96456.58;649393;216;31574;-78
2022/03/27 07:11:29;;;;;;;9.45;5.20;;;4.00;1.40;;;5.45;94.80;96456.96;646996;212;31567;-78
2022/03/27 07:14:14;;;;;;;10.45;6.07;;;4.30;1.40;;;5.70;94.30;96449.96;647975;216;31554;-78
2022/03/27 07:16:56;;;;;;;8.77;6.07;;;4.60;1.40;;;5.93;92.84;96446.33;647741;212;42169;-78
2022/03/27 07:19:44;;;;;;;9.25;6.00;;;4.90;1.40;;;6.18;92.02;96448.78;646848;216;31610;-77
2022/03/27 07:22:32;;;;;;;8.73;5.30;;;5.10;1.40;;;6.48;90.73;96444.83;648142;216;42172;-78
2022/03/27 07:25:19;;;;;;;9.50;5.40;;;5.40;1.40;;;6.72;89.74;96443.28;647477;216;31953;-78
2022/03/27 07:28:01;;;;;;;9.65;6.30;;;5.60;1.40;;;7.02;88.45;96448.05;618415;226;42547;-78
2022/03/27 07:30:48;;;;;;;6.72;5.15;;;6.00;1.40;;;7.29;86.39;96450.15;620191;222;31959;-79
2022/03/27 07:35:53;;;;;;;9.38;6.22;;;6.60;1.40;;;7.84;83.68;96452.94;648409;216;31541;-79
2022/03/27 07:38:38;;;;;;;6.87;4.62;;;6.90;1.40;;;8.17;81.82;96453.76;622076;226;32358;-79
2022/03/27 07:41:20;;;;;;;8.85;5.82;;;7.30;1.40;;;8.45;80.72;96452.27;648037;216;31627;-79
2022/03/27 07:44:08;;;;;;;9.50;5.57;;;7.50;1.40;;;8.60;80.80;96447.73;646474;216;42205;-77
2022/03/27 07:46:59;;;;;;;9.05;6.00;;;7.60;1.40;;;8.61;76.48;96444.98;621198;226;32310;-78
2022/03/27 07:49:38;;;;;;;8.10;5.00;;;8.00;1.40;;;8.90;76.81;96440.13;648290;212;31556;-79
2022/03/27 07:52:20;;;;;;;6.45;4.82;;;8.10;1.40;;;9.21;77.60;96441.81;644642;216;31559;-77
2022/03/27 07:55:01;;;;;;;13.00;6.07;;;8.40;1.40;;;9.53;75.25;96437.88;620571;226;32080;-79
2022/03/27 07:57:43;;;;;;;11.27;5.20;;;8.80;1.40;;;9.84;74.16;96436.80;648648;216;42274;-80
2022/03/27 08:00:27;;;;;;;9.50;5.30;;;9.10;1.40;;;10.11;71.59;96432.00;620943;222;32314;-79
2022/03/27 08:03:08;;;;;;;9.65;5.75;;;9.40;1.40;;;10.41;72.20;96433.16;620934;222;31894;-78
2022/03/27 08:05:58;;;;;;;9.20;5.50;;;9.60;1.40;;;10.84;71.83;96428.97;647382;212;31722;-79
2022/03/27 08:08:42;;;;;;;14.17;7.53;;;10.00;1.40;;;11.14;69.52;96430.89;620378;222;32278;-79
2022/03/27 08:11:23;;;;;;;11.97;6.50;;;10.30;1.40;;;11.40;67.45;96427.25;623303;222;31907;-80
2022/03/27 08:14:05;;;;;;;10.30;6.80;;;10.60;1.40;;;11.54;67.67;96425.19;621311;222;32288;-80
2022/03/27 08:16:46;;;;;;;9.47;6.03;;;10.40;1.40;;;11.74;66.40;96425.07;619293;222;31865;-79
2022/03/27 08:19:29;;;;;;;8.07;6.10;;;10.80;1.40;;;12.00;66.28;96423.15;647563;216;31561;-79
2022/03/27 08:22:11;;;;;;;10.95;6.53;;;10.90;1.40;;;12.39;67.72;96419.84;632161;222;31724;-78
2022/03/27 08:24:56;;;;;;;9.63;6.07;;;11.40;1.40;;;12.66;64.89;96423.18;648103;215;31561;-80
2022/03/27 08:27:38;;;;;;;11.90;7.50;;;11.50;1.40;;;12.71;63.29;96420.77;620676;222;32668;-79
2022/03/27 08:30:19;;;;;;;10.82;7.30;;;11.70;1.40;;;12.82;61.91;96420.81;648493;216;31657;-80
2022/03/27 08:33:11;;;;;;;;;;;;;;;;;;;;;
2022/03/27 08:35:50;;;;;;;11.95;7.68;;;12.20;1.40;;;13.17;60.58;96418.80;648623;212;31590;-79
2022/03/27 08:38:32;;;;;;;14.27;8.40;;;12.20;1.40;;;13.25;61.94;96421.73;647614;216;31593;-80
2022/03/27 08:41:17;;;;;;;10.77;6.72;;;12.40;1.40;;;13.59;60.69;96422.50;646166;212;32062;-79
2022/03/27 08:44:01;;;;;;;15.10;8.40;;;12.30;1.40;;;13.96;61.11;96425.03;648121;212;31618;-80
2022/03/27 08:46:46;;;;;;;9.55;6.82;;;13.00;1.40;;;14.44;59.70;96417.66;648780;216;31605;-80
2022/03/27 08:49:38;;;;;;;11.83;7.87;;;13.40;1.40;;;14.77;57.12;96415.02;620886;226;42562;-80
2022/03/27 08:52:34;;;;;;;12.98;8.10;;;14.00;1.40;;;15.02;55.28;96417.69;647877;216;31602;-78
2022/03/27 08:55:18;;;;;;;12.95;7.50;;;14.10;1.40;;;14.97;53.74;96422.57;618901;226;33673;-79
2022/03/27 08:58:07;;;;;;;11.20;5.70;;;14.30;1.40;;;15.45;51.62;96412.96;654276;212;23459;-79
2022/03/27 09:01:04;;;;;;;10.07;6.40;;;14.90;1.40;;;16.27;49.72;96416.14;647572;212;31951;-79
2022/03/27 09:03:44;;;;;;;9.77;5.95;;;15.50;1.40;;;15.70;45.89;96412.32;621477;226;33517;-79
2022/03/27 09:06:26;;;;;;;9.02;6.05;;;15.10;1.40;;;16.30;44.32;96415.88;647499;216;31569;-79
2022/03/27 09:09:08;;;;;;;11.05;5.95;;;17.70;1.40;;;18.33;40.56;96411.98;620261;222;31867;-78
2022/03/27 09:11:49;;;;;;;14.27;7.20;;;19.50;1.40;;;18.66;39.26;96414.06;648072;212;31894;-78
2022/03/27 09:14:32;;;;;;;10.25;6.90;;;18.70;1.40;;;19.71;39.23;96408.59;649477;212;31546;-78
2022/03/27 09:19:50;;;;;;;12.47;7.07;;;22.60;99.90;;;23.07;35.77;96405.45;649071;216;42228;-78
2022/03/27 09:22:34;;;;;;;10.85;7.93;;;22.50;99.90;;;25.16;33.28;96396.02;621213;226;31950;-79
2022/03/27 09:25:17;;;;;;;12.32;7.85;;;23.70;99.90;;;27.19;32.08;96399.55;645607;212;31571;-79
2022/03/27 09:28:01;;;;;;;9.77;8.05;;;24.40;99.90;;;24.57;32.08;96402.75;621687;222;32111;-78
2022/03/27 09:30:43;;;;;;;12.43;7.85;;;23.40;99.90;;;27.81;31.71;96396.63;643541;216;31627;-78
2022/03/27 09:35:51;;;;;;;10.20;7.80;;;25.60;99.90;;;22.60;29.92;96408.30;648023;216;31611;-78
2022/03/27 09:38:36;;;;;;;9.02;7.18;;;20.80;99.90;;;24.04;34.25;96409.02;648599;216;31574;-77
2022/03/27 09:41:35;;;;;;;11.63;7.53;;;23.20;99.90;;;22.35;31.28;96409.46;618813;222;31936;-77
2022/03/27 09:44:24;;;;;;;11.10;8.23;;;22.10;99.90;;;23.62;32.37;96408.23;647246;216;31574;-77
2022/03/27 09:47:10;;;;;;;11.35;8.30;;;23.00;99.90;;;25.44;29.66;96404.08;647927;216;31836;-80
2022/03/27 09:49:51;;;;;;;12.32;8.20;;;23.30;99.90;;;24.14;31.54;96399.27;647774;212;32071;-77
2022/03/27 09:52:34;;;;;;;9.90;7.18;;;23.30;99.90;;;27.23;27.22;96395.77;648240;216;31628;-77
2022/03/27 09:57:58;;;;;;;11.77;9.30;;;22.10;99.90;;;26.27;29.82;96389.84;627592;220;32210;-78
2022/03/27 10:00:40;;;;;;;15.15;10.00;;;24.70;99.90;;;24.58;27.38;96389.09;647720;212;42339;-78
2022/03/27 10:03:27;;;;;;;14.82;9.73;;;23.10;99.90;;;28.90;27.77;96383.39;649535;216;31588;-78
2022/03/27 10:06:34;;;;;;;9.20;7.60;;;25.80;99.90;;;29.65;27.86;96380.08;646902;216;31860;-78
2022/03/27 10:09:15;;;;;;;10.65;7.65;;;26.20;99.90;;;30.52;23.71;96375.52;648660;216;31598;-78
2022/03/27 10:14:35;;;;;;;15.02;10.43;;;26.90;1.00;;;29.92;23.24;96384.23;620478;226;31905;-78
2022/03/27 10:17:16;;;;;;;11.77;9.23;;;26.30;99.90;;;27.57;24.08;96387.66;648190;216;31663;-79
2022/03/27 10:19:58;;;;;;;10.50;7.60;;;24.30;99.90;;;28.79;25.39;96380.20;648275;216;31558;-78
2022/03/27 10:23:03;;;;;;;11.57;8.23;;;24.60;99.90;;;29.06;25.80;96378.68;619947;222;31931;-78
2022/03/27 10:25:47;;;;;;;11.00;8.07;;;25.10;99.90;;;29.84;24.14;96377.66;647613;216;31605;-78
2022/03/27 10:28:28;;;;;;;10.80;7.93;;;25.60;99.90;;;31.47;24.40;96374.52;620410;226;31952;-79
2022/03/27 10:31:10;;;;;;;11.10;7.40;;;27.60;99.90;;;30.36;22.77;96371.07;632482;221;31686;-79
2022/03/27 10:39:00;;;;;;;10.15;8.20;;;27.30;1.40;;;31.99;22.54;96367.81;620091;226;31997;-79
2022/03/27 10:42:11;;;;;;;11.68;8.10;;;26.90;99.90;;;31.41;21.78;96362.13;647851;216;31775;-78
2022/03/27 10:50:20;;;;;;;11.45;7.68;;;27.10;99.90;;;33.74;21.75;96350.08;647798;212;31605;-78
2022/03/27 10:53:08;;;;;;;12.05;7.68;;;28.00;99.90;;;31.61;21.11;96355.94;645375;216;31758;-77
2022/03/27 10:55:57;;;;;;;11.25;8.15;;;26.20;99.90;;;30.58;23.92;96351.73;647068;212;31814;-77
2022/03/27 10:58:40;;;;;;;10.15;8.48;;;26.60;99.90;;;33.67;20.80;96343.81;647667;216;31808;-77
2022/03/27 11:01:37;;;;;;;12.23;8.48;;;27.50;99.90;;;31.38;24.16;96350.06;647856;212;31697;-78
2022/03/27 11:04:21;;;;;;;11.48;8.63;;;26.90;99.90;;;34.22;21.13;96341.77;647618;216;31605;-77
2022/03/27 11:07:20;;;;;;;13.32;8.73;;;27.00;99.90;;;35.13;21.00;96337.18;642735;212;31755;-78
2022/03/27 11:10:01;;;;;;;12.55;8.93;;;28.40;99.90;;;35.54;20.39;96328.53;647392;216;31617;-78
2022/03/27 11:12:46;;;;;;;11.88;9.10;;;28.30;99.90;;;35.12;20.08;96328.13;647630;216;31870;-78
2022/03/27 11:15:28;;;;;;;12.35;8.65;;;27.60;99.90;;;35.64;20.24;96324.31;647123;212;31987;-78
2022/03/27 11:18:10;;;;;;;10.02;8.23;;;28.00;99.90;;;29.76;22.34;96334.61;620653;222;31917;-78
2022/03/27 11:20:52;;;;;;;10.15;7.50;;;26.20;99.90;;;34.17;20.95;96321.34;620704;226;31907;-78
2022/03/27 11:23:34;;;;;;;13.05;9.02;;;27.80;99.90;;;34.15;20.74;96321.78;647182;214;31626;-78
2022/03/27 11:26:35;;;;;;;12.13;8.50;;;28.00;99.90;;;34.01;20.62;96324.23;647064;216;31761;-77
2022/03/27 11:29:21;;;;;;;12.50;7.78;;;28.10;99.90;;;25.92;24.74;96332.50;647155;216;32142;-79
2022/03/27 11:32:07;;;;;;;11.45;7.50;;;23.40;99.90;;;32.32;21.56;96324.95;619115;226;32128;-77
2022/03/27 11:39:01;;;;;;;9.05;7.32;;;27.20;99.90;;;34.81;19.37;96312.14;647469;216;31758;-79
2022/03/27 11:41:44;;;;;;;9.80;6.97;;;28.10;99.90;;;34.67;19.51;96315.70;647337;212;31677;-78
2022/03/27 11:47:20;;;;;;;9.07;6.80;;;28.00;99.90;;;36.35;18.45;96314.73;646899;216;31544;-78
2022/03/27 11:50:03;;;;;;;11.35;7.60;;;28.60;99.90;;;31.00;20.89;96318.38;647872;216;31630;-78
2022/03/27 11:52:46;;;;;;;9.68;7.82;;;26.30;99.90;;;26.27;25.24;96325.61;620519;226;31926;-77
2022/03/27 11:55:28;;;;;;;11.55;8.65;;;24.30;99.90;;;31.42;20.83;96313.11;647544;216;31577;-78
2022/03/27 11:58:11;;;;;;;11.48;8.13;;;26.70;99.90;;;29.69;22.76;96311.51;618745;226;32178;-78
2022/03/27 12:00:51;;;;;;;9.70;6.90;;;25.70;1.40;;;34.02;19.99;96299.52;646840;216;31629;-78
2022/03/27 12:03:33;;;;;;;10.85;7.72;;;27.20;1.40;;;34.93;19.43;96296.72;647501;212;31549;-77
2022/03/27 12:06:17;;;;;;;10.25;7.22;;;28.20;99.90;;;35.59;19.31;96290.50;646019;216;31564;-78
2022/03/27 12:08:57;;;;;;;15.25;8.15;;;28.30;99.90;;;34.09;20.79;96286.69;648513;212;31634;-78
2022/03/27 12:11:38;;;;;;;10.00;7.70;;;27.20;1.40;;;35.55;19.47;96287.08;647572;216;31601;-77
2022/03/27 12:14:23;;;;;;;10.00;7.20;;;28.50;99.90;;;36.75;18.76;96288.64;647711;216;31585;-77
2022/03/27 12:17:05;;;;;;;9.63;7.03;;;29.40;99.90;;;37.33;18.00;96280.68;619759;222;31935;-78
2022/03/27 12:20:06;;;;;;;8.93;7.00;;;29.10;99.90;;;30.84;20.30;96288.49;648274;212;42171;-78
2022/03/27 12:22:50;;;;;;;8.18;6.65;;;26.30;99.90;;;31.44;20.55;96285.95;646849;216;31588;-77
2022/03/27 12:25:33;;;;;;;8.80;6.60;;;26.90;99.90;;;27.27;21.32;96298.30;633823;221;31737;-78
2022/03/27 12:31:01;;;;;;;10.88;6.70;;;23.30;99.90;;;24.28;24.78;96295.47;647091;212;31692;-77
2022/03/27 12:36:03;;;;;;;10.90;6.95;;;24.50;99.90;;;32.55;20.22;96275.63;646599;216;31641;-77
2022/03/27 12:38:50;;;;;;;10.17;7.43;;;27.90;99.90;;;30.57;20.04;96272.67;647174;216;42472;-78
2022/03/27 12:41:36;;;;;;;9.30;6.00;;;24.60;99.90;;;29.42;22.32;96273.28;620596;226;32204;-77
2022/03/27 12:44:17;;;;;;;14.83;8.03;;;26.20;99.90;;;34.04;19.10;96268.09;647365;215;32601;-78
2022/03/27 12:46:59;;;;;;;9.70;6.93;;;27.80;99.90;;;30.99;21.25;96272.19;646223;216;31633;-77
2022/03/27 12:49:48;;;;;;;9.40;7.12;;;27.10;99.90;;;34.82;19.16;96260.30;647934;216;42204;-78
2022/03/27 12:52:30;;;;;;;9.75;7.07;;;28.30;1.40;;;35.88;18.15;96257.71;620388;223;42953;-80